Brookings, SD (57006)

5:04 AM CST on February 09, 2016 (GMT -0600)
Neighborhood | | Change Station
CLOSE
Current Station
Personal Weather Station
Location: Brookings, SD
Elevation: 1627 ft
Nearby Weather Stations

Elev 1627 ft 44.29 °N, 96.78 °W | Updated 2 minutes ago

Clear
Clear
6.1 °F
Feels Like 0 °F
N
3.1
Wind Variable Wind from SW
Gusts 6.0 mph

Today
High -- | Low -- °F
--% Chance of Precip.
Yesterday
High -- | Low -- °F
Precip. -- in
Pressure 30.31 in
Visibility 10.0 miles
Clouds Clear
Windchill 0 °F
Dew Point 2 °F
Humidity 81%
Rainfall 0.00 in
Snow Depth Not available.
7:35 AM 5:47 PM
New Moon, 1% visible
METAR KBKX 091056Z AUTO 35014G21KT 10SM CLR M15/M18 A3016 RMK AO2 SLP262 T11501183 FZRANO
Pressure 30.31 in
Visibility 10.0 miles
Clouds Clear
Windchill 0 °F
Dew Point 2 °F
Humidity 81%
Rainfall 0.00 in
Snow Depth Not available.
7:35 AM 5:47 PM
New Moon, 1% visible
METAR KBKX 091056Z AUTO 35014G21KT 10SM CLR M15/M18 A3016 RMK AO2 SLP262 T11501183 FZRANO

10-Day Weather Forecast

Almanac

Astronomy

Feb. 09, 2016 Rise Set
Actual Time
Civil Twilight
Nautical Twilight
Astronomical Twilight
Moon
Length of Visible Light
Length of Day
Tomorrow will be .
, % of the Moon is Illuminated

Today's Extremes

State Highs State Lows

Community

WunderPhotos

Upload Photos

1,891,565 photos uploaded!

WunderBlog® & News

Nearby

Air Quality

  Air Quality AQ Index Pollutant
Not available.

Snow Depth

Station Depth Elevation

Earthquake Activity

City Distance Mag. Time & Date
Minimum magnitude displayed is 2.5.

Coastal Water Temperatures

Place Temperature

Stations

Nearby Weather Stations

Station Location Temp. Windchill Dew Point Humidity Wind Precip. Elev Updated Type
                   

Watches & Warnings

There are currently no watches in effect.